Wetterdaten: Woche 19.09.16 - 25.09.16 (KW38)
Datum Zeit Temp. Aussen Temp. o. S. +5cm Feuchte Auss BlattFeu 1 Luftdruck Regen Sonnenschein Regendauer Solar Windben Empfang
19.09.2016 00:00 14,4 C 14,0 C 12,8 C 92 % 1 lf 1016,5 hPa 0,0 l/m 0,00 h 0,00 h 5 W/m 4,1 km/h (1 Bft) 97,59 %
19.09.2016 01:00 14,2 C 13,5 C 12,5 C 91 % 1 lf 1016,7 hPa 0,0 l/m 0,00 h 0,00 h 5 W/m 3,6 km/h (1 Bft) 96,99 %
19.09.2016 02:00 14,1 C 13,9 C 12,8 C 92 % 1 lf 1016,7 hPa 0,0 l/m 0,00 h 0,00 h 5 W/m 3,8 km/h (1 Bft) 93,30 %
19.09.2016 03:00 14,0 C 13,9 C 12,8 C 92 % 1 lf 1016,8 hPa 0,0 l/m 0,00 h 0,00 h 5 W/m 3,8 km/h (1 Bft) 98,58 %
19.09.2016 04:00 13,9 C 13,9 C 12,8 C 91 % 0 lf 1017,0 hPa 0,0 l/m 0,00 h 0,00 h 5 W/m 5,9 km/h (2 Bft) 95,41 %
19.09.2016 05:00 14,0 C 13,8 C 12,6 C 89 % 0 lf 1017,3 hPa 0,0 l/m 0,00 h 0,00 h 5 W/m 6,7 km/h (2 Bft) 96,80 %
19.09.2016 06:00 13,8 C 13,3 C 12,2 C 90 % 1 lf 1017,5 hPa 0,0 l/m 0,00 h 0,00 h 5 W/m 7,4 km/h (2 Bft) 93,97 %
19.09.2016 07:00 13,5 C 13,3 C 12,2 C 91 % 1 lf 1017,6 hPa 0,0 l/m 0,00 h 0,00 h 11 W/m 6,9 km/h (2 Bft) 95,94 %
19.09.2016 08:00 13,5 C 14,1 C 13,0 C 92 % 0 lf 1017,8 hPa 0,0 l/m 0,00 h 0,00 h 56 W/m 9,7 km/h (2 Bft) 96,58 %
19.09.2016 09:00 14,1 C 15,1 C 13,9 C 91 % 0 lf 1018,2 hPa 0,0 l/m 0,00 h 0,00 h 99 W/m 12,5 km/h (3 Bft) 97,74 %
19.09.2016 10:00 14,6 C 16,0 C 14,8 C 89 % 0 lf 1018,9 hPa 0,0 l/m 0,00 h 0,00 h 123 W/m 11,7 km/h (2 Bft) 92,71 %
19.09.2016 11:00 15,4 C 17,5 C 16,0 C 85 % 0 lf 1019,2 hPa 0,0 l/m 0,00 h 0,00 h 208 W/m 13,7 km/h (3 Bft) 98,17 %
19.09.2016 12:00 16,9 C 23,2 C 18,8 C 78 % 0 lf 1019,2 hPa 0,0 l/m 1,00 h 0,00 h 705 W/m 15,2 km/h (3 Bft) 97,50 %
19.09.2016 13:00 18,0 C 22,3 C 19,5 C 70 % 0 lf 1019,2 hPa 0,0 l/m 1,00 h 0,00 h 403 W/m 16,0 km/h (3 Bft) 94,80 %
19.09.2016 14:00 18,7 C 24,0 C 19,5 C 66 % 0 lf 1019,0 hPa 0,0 l/m 1,00 h 0,00 h 422 W/m 13,9 km/h (3 Bft) 96,19 %
19.09.2016 15:00 19,3 C 23,5 C 19,0 C 59 % 0 lf 1018,9 hPa 0,0 l/m 0,97 h 0,00 h 791 W/m 12,8 km/h (3 Bft) 97,69 %
19.09.2016 16:00 18,3 C 18,3 C 17,0 C 61 % 0 lf 1018,9 hPa 0,0 l/m 0,00 h 0,00 h 61 W/m 12,7 km/h (3 Bft) 95,02 %
19.09.2016 17:00 17,5 C 17,5 C 16,3 C 65 % 0 lf 1018,9 hPa 0,0 l/m 0,00 h 0,00 h 39 W/m 11,4 km/h (2 Bft) 96,56 %
19.09.2016 18:00 17,1 C 17,1 C 16,0 C 69 % 0 lf 1018,8 hPa 0,0 l/m 0,00 h 0,00 h 33 W/m 7,2 km/h (2 Bft) 96,08 %
19.09.2016 19:00 16,7 C 16,3 C 15,0 C 71 % 0 lf 1018,9 hPa 0,0 l/m 0,00 h 0,00 h 10 W/m 5,7 km/h (1 Bft) 96,66 %
19.09.2016 20:00 16,2 C 15,5 C 14,1 C 74 % 0 lf 1019,0 hPa 0,0 l/m 0,00 h 0,00 h 0 W/m 3,7 km/h (1 Bft) 94,77 %
19.09.2016 21:00 15,6 C 14,8 C 13,4 C 76 % 0 lf 1019,1 hPa 0,0 l/m 0,00 h 0,00 h 0 W/m 4,1 km/h (1 Bft) 97,13 %
19.09.2016 22:00 15,0 C 14,1 C 12,8 C 82 % 0 lf 1019,1 hPa 0,0 l/m 0,00 h 0,00 h 5 W/m 1,8 km/h (1 Bft) 96,78 %
19.09.2016 23:00 14,4 C 13,2 C 12,0 C 84 % 0 lf 1019,0 hPa 0,0 l/m 0,00 h 0,00 h 5 W/m 0,3 km/h (0 Bft) 95,64 %
20.09.2016 00:00 13,4 C 12,2 C 10,8 C 86 % 1 lf 1019,0 hPa 0,0 l/m 0,00 h 0,00 h 4 W/m 1,2 km/h (1 Bft) 91,49 %
20.09.2016 01:00 12,8 C 12,7 C 11,6 C 89 % 1 lf 1018,9 hPa 0,0 l/m 0,00 h 0,00 h 0 W/m 1,5 km/h (1 Bft) 97,51 %
20.09.2016 02:00 12,7 C 12,2 C 11,2 C 89 % 1 lf 1018,8 hPa 0,0 l/m 0,00 h 0,00 h 0 W/m 2,3 km/h (1 Bft) 96,58 %
20.09.2016 03:00 12,2 C 10,8 C 9,8 C 89 % 2 lf 1018,6 hPa 0,0 l/m 0,00 h 0,00 h 0 W/m 0,7 km/h (0 Bft) 95,59 %
20.09.2016 04:00 11,7 C 11,2 C 10,3 C 91 % 1 lf 1018,4 hPa 0,0 l/m 0,00 h 0,00 h 0 W/m 2,2 km/h (1 Bft) 95,30 %
20.09.2016 05:00 11,8 C 11,9 C 11,0 C 93 % 1 lf 1018,4 hPa 0,0 l/m 0,00 h 0,00 h 0 W/m 1,6 km/h (1 Bft) 98,24 %
20.09.2016 06:00 11,9 C 11,7 C 11,1 C 93 % 1 lf 1018,3 hPa 0,0 l/m 0,00 h 0,00 h 0 W/m 0,6 km/h (0 Bft) 96,98 %
20.09.2016 07:00 12,1 C 12,2 C 11,2 C 94 % 1 lf 1018,4 hPa 0,0 l/m 0,00 h 0,00 h 10 W/m 1,7 km/h (1 Bft) 94,78 %
20.09.2016 08:00 12,4 C 13,0 C 12,2 C 94 % 1 lf 1018,5 hPa 0,0 l/m 0,00 h 0,00 h 51 W/m 0,8 km/h (0 Bft) 96,70 %
20.09.2016 09:00 13,1 C 14,9 C 13,5 C 95 % 0 lf 1018,7 hPa 0,0 l/m 0,00 h 0,00 h 115 W/m 4,6 km/h (1 Bft) 96,78 %
20.09.2016 10:00 14,1 C 16,3 C 15,1 C 93 % 0 lf 1018,9 hPa 0,0 l/m 0,00 h 0,07 h 140 W/m 4,1 km/h (1 Bft) 96,22 %
20.09.2016 11:00 15,3 C 18,2 C 16,6 C 88 % 0 lf 1018,9 hPa 0,0 l/m 0,00 h 0,00 h 186 W/m 3,8 km/h (1 Bft) 94,68 %
20.09.2016 12:00 16,6 C 19,7 C 18,2 C 77 % 0 lf 1018,8 hPa 0,0 l/m 0,17 h 0,00 h 262 W/m 10,5 km/h (2 Bft) 97,52 %
20.09.2016 13:00 18,0 C 20,2 C 19,9 C 68 % 0 lf 1018,7 hPa 0,0 l/m 0,43 h 0,00 h 303 W/m 12,9 km/h (3 Bft) 96,48 %
20.09.2016 14:00 18,3 C 19,9 C 19,5 C 67 % 0 lf 1018,5 hPa 0,0 l/m 0,20 h 0,00 h 269 W/m 10,7 km/h (2 Bft) 94,42 %
20.09.2016 15:00 19,2 C 25,3 C 19,7 C 65 % 0 lf 1018,1 hPa 0,0 l/m 1,00 h 0,00 h 521 W/m 11,6 km/h (2 Bft) 98,13 %
20.09.2016 16:00 19,2 C 20,9 C 19,6 C 67 % 0 lf 1018,0 hPa 0,0 l/m 0,77 h 0,00 h 246 W/m 7,8 km/h (2 Bft) 95,40 %
20.09.2016 17:00 18,9 C 19,2 C 18,6 C 69 % 0 lf 1018,0 hPa 0,0 l/m 0,00 h 0,00 h 113 W/m 8,6 km/h (2 Bft) 95,53 %
20.09.2016 18:00 18,0 C 17,6 C 16,7 C 73 % 0 lf 1018,0 hPa 0,0 l/m 0,00 h 0,00 h 35 W/m 6,2 km/h (2 Bft) 96,63 %
20.09.2016 19:00 17,3 C 16,8 C 15,5 C 77 % 0 lf 1018,2 hPa 0,0 l/m 0,00 h 0,00 h 9 W/m 3,0 km/h (1 Bft) 96,87 %
20.09.2016 20:00 16,7 C 16,1 C 14,8 C 79 % 0 lf 1018,4 hPa 0,0 l/m 0,00 h 0,00 h 0 W/m 0,0 km/h (0 Bft) 95,66 %
20.09.2016 21:00 16,3 C 15,6 C 14,4 C 81 % 0 lf 1018,5 hPa 0,0 l/m 0,00 h 0,00 h 0 W/m 0,0 km/h (0 Bft) 96,94 %
20.09.2016 22:00 15,9 C 14,8 C 13,7 C 85 % 0 lf 1018,6 hPa 0,0 l/m 0,00 h 0,00 h 0 W/m 0,0 km/h (0 Bft) 93,81 %
20.09.2016 23:00 15,1 C 13,6 C 12,4 C 87 % 1 lf 1018,6 hPa 0,0 l/m 0,00 h 0,00 h 0 W/m 0,0 km/h (0 Bft) 97,50 %
21.09.2016 00:00 14,4 C 13,9 C 13,1 C 88 % 1 lf 1018,7 hPa 0,0 l/m 0,00 h 0,00 h 0 W/m 0,1 km/h (0 Bft) 98,37 %
21.09.2016 01:00 14,1 C 12,8 C 11,8 C 90 % 2 lf 1018,5 hPa 0,0 l/m 0,00 h 0,00 h 3 W/m 0,4 km/h (0 Bft) 93,45 %
21.09.2016 02:00 13,4 C 12,3 C 11,2 C 91 % 3 lf 1018,5 hPa 0,0 l/m 0,00 h 0,00 h 4 W/m 0,3 km/h (0 Bft) 96,51 %
21.09.2016 03:00 13,2 C 13,5 C 12,1 C 92 % 1 lf 1018,5 hPa 0,0 l/m 0,00 h 0,00 h 0 W/m 3,4 km/h (1 Bft) 97,72 %
21.09.2016 04:00 13,4 C 13,5 C 12,3 C 94 % 1 lf 1018,4 hPa 0,0 l/m 0,00 h 0,00 h 0 W/m 2,2 km/h (1 Bft) 94,52 %
21.09.2016 05:00 13,6 C 14,0 C 12,8 C 94 % 1 lf 1018,4 hPa 0,0 l/m 0,00 h 0,00 h 0 W/m 5,9 km/h (2 Bft) 94,94 %
21.09.2016 06:00 13,8 C 14,4 C 12,9 C 89 % 0 lf 1018,5 hPa 0,0 l/m 0,00 h 0,00 h 0 W/m 7,3 km/h (2 Bft) 98,51 %
21.09.2016 07:00 13,7 C 13,1 C 11,3 C 84 % 0 lf 1018,5 hPa 0,0 l/m 0,00 h 0,00 h 15 W/m 5,7 km/h (1 Bft) 93,74 %
21.09.2016 08:00 13,3 C 15,5 C 12,5 C 84 % 0 lf 1018,8 hPa 0,0 l/m 0,63 h 0,00 h 115 W/m 8,4 km/h (2 Bft) 98,79 %
21.09.2016 09:00 15,8 C 22,0 C 15,2 C 75 % 0 lf 1019,0 hPa 0,0 l/m 1,00 h 0,00 h 303 W/m 15,1 km/h (3 Bft) 95,37 %
21.09.2016 10:00 17,9 C 24,1 C 20,5 C 65 % 0 lf 1019,2 hPa 0,0 l/m 1,00 h 0,00 h 437 W/m 16,1 km/h (3 Bft) 95,23 %
21.09.2016 11:00 19,4 C 25,3 C 23,9 C 57 % 0 lf 1019,3 hPa 0,0 l/m 1,00 h 0,00 h 538 W/m 16,2 km/h (3 Bft) 98,29 %
21.09.2016 12:00 20,5 C 26,7 C 21,8 C 53 % 0 lf 1019,1 hPa 0,0 l/m 1,00 h 0,00 h 621 W/m 16,2 km/h (3 Bft) 94,73 %
21.09.2016 13:00 21,2 C 27,0 C 20,0 C 50 % 0 lf 1018,9 hPa 0,0 l/m 1,00 h 0,00 h 628 W/m 15,1 km/h (3 Bft) 96,65 %
21.09.2016 14:00 21,7 C 27,9 C 19,9 C 49 % 0 lf 1018,8 hPa 0,0 l/m 1,00 h 0,00 h 571 W/m 12,8 km/h (3 Bft) 96,29 %
21.09.2016 15:00 21,4 C 26,2 C 20,0 C 49 % 0 lf 1018,6 hPa 0,0 l/m 1,00 h 0,00 h 499 W/m 13,9 km/h (3 Bft) 96,16 %
21.09.2016 16:00 21,4 C 26,5 C 19,6 C 49 % 0 lf 1018,5 hPa 0,0 l/m 1,00 h 0,00 h 395 W/m 9,4 km/h (2 Bft) 96,65 %
21.09.2016 17:00 21,1 C 24,2 C 18,6 C 51 % 0 lf 1018,2 hPa 0,0 l/m 1,00 h 0,00 h 234 W/m 8,2 km/h (2 Bft) 95,94 %
21.09.2016 18:00 20,4 C 20,2 C 16,2 C 56 % 0 lf 1018,2 hPa 0,0 l/m 0,33 h 0,00 h 74 W/m 4,0 km/h (1 Bft) 95,98 %
21.09.2016 19:00 18,6 C 16,1 C 13,4 C 64 % 0 lf 1018,5 hPa 0,0 l/m 0,17 h 0,00 h 16 W/m 1,0 km/h (0 Bft) 97,85 %
21.09.2016 20:00 16,0 C 13,4 C 11,5 C 73 % 0 lf 1018,8 hPa 0,0 l/m 0,00 h 0,00 h 0 W/m 0,0 km/h (0 Bft) 94,22 %
21.09.2016 21:00 14,1 C 11,8 C 10,4 C 80 % 0 lf 1019,2 hPa 0,0 l/m 0,00 h 0,00 h 0 W/m 0,0 km/h (0 Bft) 96,58 %
21.09.2016 22:00 12,8 C 11,1 C 9,6 C 84 % 1 lf 1019,5 hPa 0,0 l/m 0,00 h 0,00 h 4 W/m 0,0 km/h (0 Bft) 96,16 %
21.09.2016 23:00 11,9 C 11,0 C 9,3 C 87 % 2 lf 1019,6 hPa 0,0 l/m 0,00 h 0,00 h 4 W/m 1,0 km/h (0 Bft) 95,58 %
22.09.2016 00:00 11,2 C 10,5 C 8,9 C 90 % 2 lf 1019,7 hPa 0,0 l/m 0,00 h 0,00 h 0 W/m 0,0 km/h (0 Bft) 97,36 %
22.09.2016 01:00 10,6 C 10,3 C 8,3 C 91 % 2 lf 1019,6 hPa 0,0 l/m 0,00 h 0,00 h 0 W/m 1,6 km/h (1 Bft) 96,02 %
22.09.2016 02:00 10,2 C 10,1 C 8,1 C 92 % 1 lf 1019,7 hPa 0,0 l/m 0,00 h 0,00 h 0 W/m 4,7 km/h (1 Bft) 93,88 %
22.09.2016 03:00 9,8 C 9,6 C 7,8 C 92 % 1 lf 1019,8 hPa 0,0 l/m 0,00 h 0,00 h 0 W/m 5,5 km/h (1 Bft) 97,87 %
22.09.2016 04:00 9,5 C 9,3 C 7,4 C 92 % 2 lf 1019,9 hPa 0,0 l/m 0,00 h 0,00 h 5 W/m 5,0 km/h (1 Bft) 96,30 %
22.09.2016 05:00 9,2 C 9,0 C 7,2 C 93 % 2 lf 1020,0 hPa 0,0 l/m 0,00 h 0,00 h 0 W/m 6,6 km/h (2 Bft) 95,65 %
22.09.2016 06:00 9,0 C 9,1 C 7,2 C 93 % 2 lf 1020,0 hPa 0,0 l/m 0,00 h 0,00 h 0 W/m 8,7 km/h (2 Bft) 95,29 %
22.09.2016 07:00 8,9 C 9,0 C 7,2 C 93 % 1 lf 1020,1 hPa 0,0 l/m 0,00 h 0,00 h 14 W/m 8,7 km/h (2 Bft) 97,57 %
22.09.2016 08:00 9,3 C 11,4 C 8,3 C 93 % 1 lf 1020,6 hPa 0,0 l/m 0,77 h 0,00 h 126 W/m 11,5 km/h (2 Bft) 95,94 %
22.09.2016 09:00 11,9 C 16,9 C 12,0 C 88 % 0 lf 1020,7 hPa 0,0 l/m 1,00 h 0,00 h 304 W/m 12,5 km/h (3 Bft) 95,80 %
22.09.2016 10:00 15,1 C 21,4 C 18,4 C 79 % 0 lf 1020,8 hPa 0,0 l/m 1,00 h 0,00 h 416 W/m 9,9 km/h (2 Bft) 95,16 %
22.09.2016 11:00 17,8 C 24,4 C 22,4 C 71 % 0 lf 1020,9 hPa 0,0 l/m 1,00 h 0,00 h 511 W/m 10,1 km/h (2 Bft) 96,79 %
22.09.2016 12:00 19,7 C 26,2 C 21,5 C 64 % 0 lf 1020,8 hPa 0,0 l/m 0,97 h 0,00 h 569 W/m 11,1 km/h (2 Bft) 96,51 %
22.09.2016 13:00 21,0 C 25,0 C 21,5 C 60 % 0 lf 1020,6 hPa 0,0 l/m 1,00 h 0,00 h 514 W/m 12,0 km/h (2 Bft) 94,74 %
22.09.2016 14:00 21,7 C 26,5 C 22,0 C 59 % 0 lf 1020,2 hPa 0,0 l/m 1,00 h 0,00 h 486 W/m 9,8 km/h (2 Bft) 98,15 %
22.09.2016 15:00 22,7 C 26,8 C 22,5 C 57 % 0 lf 1020,1 hPa 0,0 l/m 1,00 h 0,00 h 393 W/m 7,9 km/h (2 Bft) 96,23 %
22.09.2016 16:00 22,3 C 25,2 C 21,5 C 58 % 0 lf 1019,9 hPa 0,0 l/m 0,93 h 0,00 h 265 W/m 6,4 km/h (2 Bft) 95,23 %
22.09.2016 17:00 21,8 C 22,4 C 20,7 C 61 % 0 lf 1019,8 hPa 0,0 l/m 0,50 h 0,00 h 148 W/m 3,6 km/h (1 Bft) 96,80 %
22.09.2016 18:00 20,9 C 19,9 C 17,9 C 66 % 0 lf 1019,9 hPa 0,0 l/m 0,00 h 0,00 h 53 W/m 1,4 km/h (1 Bft) 97,51 %
22.09.2016 19:00 19,2 C 17,4 C 15,3 C 72 % 0 lf 1020,0 hPa 0,0 l/m 0,00 h 0,00 h 10 W/m 0,1 km/h (0 Bft) 93,43 %
22.09.2016 20:00 17,4 C 15,8 C 13,5 C 79 % 0 lf 1020,2 hPa 0,0 l/m 0,00 h 0,00 h 0 W/m 0,0 km/h (0 Bft) 98,15 %
22.09.2016 21:00 15,9 C 14,2 C 12,1 C 84 % 1 lf 1020,4 hPa 0,0 l/m 0,00 h 0,00 h 4 W/m 0,2 km/h (0 Bft) 96,65 %
22.09.2016 22:00 14,4 C 13,0 C 11,0 C 87 % 3 lf 1020,6 hPa 0,0 l/m 0,00 h 0,00 h 5 W/m 0,0 km/h (0 Bft) 94,88 %
22.09.2016 23:00 13,5 C 12,8 C 11,1 C 89 % 2 lf 1020,7 hPa 0,0 l/m 0,00 h 0,00 h 0 W/m 0,0 km/h (0 Bft) 96,73 %
23.09.2016 00:00 13,1 C 12,4 C 11,1 C 91 % 2 lf 1020,7 hPa 0,0 l/m 0,00 h 0,00 h 0 W/m 0,1 km/h (0 Bft) 97,76 %
23.09.2016 01:00 12,8 C 12,3 C 10,5 C 92 % 2 lf 1020,8 hPa 0,0 l/m 0,00 h 0,00 h 0 W/m 1,1 km/h (1 Bft) 95,51 %
23.09.2016 02:00 12,2 C 11,6 C 9,8 C 93 % 3 lf 1020,9 hPa 0,0 l/m 0,00 h 0,00 h 0 W/m 2,5 km/h (1 Bft) 97,51 %
23.09.2016 03:00 11,7 C 11,1 C 9,4 C 93 % 4 lf 1021,1 hPa 0,0 l/m 0,00 h 0,00 h 0 W/m 1,5 km/h (1 Bft) 94,73 %
23.09.2016 04:00 11,4 C 11,6 C 9,8 C 94 % 4 lf 1021,3 hPa 0,0 l/m 0,00 h 0,00 h 0 W/m 2,3 km/h (1 Bft) 96,39 %
23.09.2016 05:00 11,2 C 10,9 C 9,1 C 95 % 5 lf 1021,5 hPa 0,0 l/m 0,00 h 0,00 h 0 W/m 3,5 km/h (1 Bft) 98,06 %
23.09.2016 06:00 10,8 C 10,6 C 8,9 C 95 % 13 lf 1021,6 hPa 0,0 l/m 0,00 h 0,00 h 0 W/m 2,3 km/h (1 Bft) 94,98 %
23.09.2016 07:00 10,9 C 11,3 C 9,8 C 96 % 12 lf 1022,1 hPa 0,0 l/m 0,00 h 0,00 h 20 W/m 4,7 km/h (1 Bft) 96,17 %
23.09.2016 08:00 11,4 C 12,4 C 11,1 C 97 % 2 lf 1022,7 hPa 0,0 l/m 0,00 h 0,00 h 60 W/m 3,9 km/h (1 Bft) 98,23 %
23.09.2016 09:00 12,7 C 18,1 C 13,6 C 97 % 1 lf 1023,1 hPa 0,0 l/m 0,83 h 0,00 h 231 W/m 5,0 km/h (1 Bft) 95,47 %
23.09.2016 10:00 16,2 C 21,5 C 18,6 C 92 % 0 lf 1023,7 hPa 0,0 l/m 0,63 h 0,00 h 288 W/m 8,8 km/h (2 Bft) 95,29 %
23.09.2016 11:00 18,4 C 24,8 C 21,4 C 83 % 0 lf 1024,0 hPa 0,0 l/m 0,93 h 0,00 h 437 W/m 11,2 km/h (2 Bft) 98,23 %
23.09.2016 12:00 20,9 C 29,8 C 22,8 C 70 % 0 lf 1024,0 hPa 0,0 l/m 0,97 h 0,00 h 639 W/m 11,8 km/h (2 Bft) 96,21 %
23.09.2016 13:00 22,0 C 27,7 C 22,0 C 67 % 0 lf 1024,2 hPa 0,0 l/m 0,73 h 0,00 h 471 W/m 13,0 km/h (3 Bft) 94,49 %
23.09.2016 14:00 22,2 C 26,1 C 21,8 C 65 % 0 lf 1024,1 hPa 0,0 l/m 0,40 h 0,00 h 486 W/m 16,7 km/h (3 Bft) 97,93 %
23.09.2016 15:00 20,7 C 26,6 C 20,4 C 70 % 0 lf 1024,1 hPa 0,0 l/m 0,67 h 0,00 h 396 W/m 11,9 km/h (2 Bft) 94,87 %
23.09.2016 16:00 21,2 C 24,2 C 20,3 C 67 % 0 lf 1024,1 hPa 0,0 l/m 0,30 h 0,00 h 196 W/m 10,4 km/h (2 Bft) 95,80 %
23.09.2016 17:00 21,0 C 23,5 C 19,7 C 64 % 0 lf 1024,2 hPa 0,0 l/m 0,47 h 0,00 h 159 W/m 14,2 km/h (3 Bft) 95,95 %
23.09.2016 18:00 20,5 C 21,5 C 18,1 C 66 % 0 lf 1024,5 hPa 0,0 l/m 0,57 h 0,00 h 76 W/m 10,0 km/h (2 Bft) 97,85 %
23.09.2016 19:00 19,1 C 16,7 C 14,1 C 69 % 0 lf 1024,6 hPa 0,0 l/m 0,17 h 0,00 h 13 W/m 0,6 km/h (0 Bft) 94,45 %
23.09.2016 20:00 16,3 C 14,1 C 11,9 C 77 % 0 lf 1024,8 hPa 0,0 l/m 0,00 h 0,00 h 0 W/m 0,0 km/h (0 Bft) 95,97 %
23.09.2016 21:00 14,4 C 12,4 C 10,7 C 83 % 1 lf 1024,9 hPa 0,0 l/m 0,00 h 0,00 h 4 W/m 0,0 km/h (0 Bft) 97,40 %
23.09.2016 22:00 13,1 C 11,4 C 9,9 C 86 % 3 lf 1025,2 hPa 0,0 l/m 0,00 h 0,00 h 4 W/m 0,0 km/h (0 Bft) 96,58 %
23.09.2016 23:00 12,1 C 10,8 C 9,2 C 89 % 4 lf 1025,3 hPa 0,0 l/m 0,00 h 0,00 h 5 W/m 0,3 km/h (0 Bft) 93,80 %
24.09.2016 00:00 11,3 C 10,0 C 8,8 C 89 % 13 lf 1025,0 hPa 0,0 l/m 0,00 h 0,00 h 5 W/m 0,1 km/h (0 Bft) 97,18 %
24.09.2016 01:00 10,7 C 9,8 C 8,3 C 91 % 15 lf 1024,7 hPa 0,0 l/m 0,00 h 0,00 h 5 W/m 1,1 km/h (0 Bft) 96,21 %
24.09.2016 02:00 10,3 C 9,7 C 8,1 C 92 % 15 lf 1024,7 hPa 0,0 l/m 0,00 h 0,00 h 5 W/m 1,4 km/h (1 Bft) 96,73 %
24.09.2016 03:00 10,4 C 10,5 C 8,9 C 95 % 15 lf 1024,5 hPa 0,0 l/m 0,00 h 0,00 h 5 W/m 3,3 km/h (1 Bft) 94,73 %
24.09.2016 04:00 10,6 C 10,8 C 8,9 C 96 % 15 lf 1024,1 hPa 0,0 l/m 0,00 h 0,00 h 5 W/m 5,9 km/h (2 Bft) 97,44 %
24.09.2016 05:00 10,6 C 10,6 C 8,7 C 96 % 15 lf 1024,0 hPa 0,0 l/m 0,00 h 0,00 h 5 W/m 5,9 km/h (2 Bft) 95,86 %
24.09.2016 06:00 10,3 C 10,2 C 8,4 C 96 % 15 lf 1023,8 hPa 0,0 l/m 0,00 h 0,00 h 5 W/m 6,9 km/h (2 Bft) 97,09 %
24.09.2016 07:00 10,1 C 10,1 C 8,5 C 96 % 15 lf 1023,8 hPa 0,0 l/m 0,40 h 0,00 h 19 W/m 7,6 km/h (2 Bft) 95,94 %
24.09.2016 08:00 10,7 C 12,5 C 9,9 C 97 % 15 lf 1023,9 hPa 0,0 l/m 1,00 h 0,00 h 126 W/m 11,9 km/h (2 Bft) 95,88 %
24.09.2016 09:00 12,9 C 17,3 C 13,3 C 97 % 1 lf 1024,0 hPa 0,0 l/m 1,00 h 0,00 h 283 W/m 12,0 km/h (2 Bft) 96,17 %
24.09.2016 10:00 15,9 C 21,0 C 18,9 C 89 % 0 lf 1024,1 hPa 0,0 l/m 0,90 h 0,00 h 350 W/m 11,5 km/h (2 Bft) 98,08 %
24.09.2016 11:00 18,8 C 24,3 C 23,5 C 79 % 0 lf 1024,0 hPa 0,0 l/m 1,00 h 0,00 h 586 W/m 12,8 km/h (3 Bft) 94,74 %
24.09.2016 12:00 21,8 C 28,8 C 23,5 C 69 % 0 lf 1023,7 hPa 0,0 l/m 0,97 h 0,00 h 597 W/m 10,3 km/h (2 Bft) 96,72 %
24.09.2016 13:00 23,8 C 30,2 C 22,6 C 60 % 0 lf 1023,1 hPa 0,0 l/m 0,90 h 0,00 h 581 W/m 10,0 km/h (2 Bft) 95,49 %
24.09.2016 14:00 24,4 C 29,8 C 23,7 C 56 % 0 lf 1022,3 hPa 0,0 l/m 0,90 h 0,00 h 657 W/m 13,5 km/h (3 Bft) 95,92 %
24.09.2016 15:00 25,2 C 29,7 C 23,9 C 51 % 0 lf 1021,5 hPa 0,0 l/m 0,90 h 0,00 h 552 W/m 13,5 km/h (3 Bft) 95,93 %
24.09.2016 16:00 24,9 C 29,7 C 22,8 C 50 % 0 lf 1020,8 hPa 0,0 l/m 1,00 h 0,00 h 384 W/m 14,3 km/h (3 Bft) 96,22 %
24.09.2016 17:00 24,7 C 28,2 C 21,8 C 51 % 0 lf 1020,0 hPa 0,0 l/m 1,00 h 0,00 h 235 W/m 17,8 km/h (3 Bft) 95,43 %
24.09.2016 18:00 23,6 C 23,8 C 19,9 C 53 % 0 lf 1019,6 hPa 0,0 l/m 0,50 h 0,00 h 71 W/m 15,8 km/h (3 Bft) 95,96 %
24.09.2016 19:00 21,6 C 20,0 C 16,7 C 59 % 0 lf 1019,4 hPa 0,0 l/m 0,00 h 0,00 h 11 W/m 10,4 km/h (2 Bft) 97,10 %
24.09.2016 20:00 19,4 C 18,1 C 14,6 C 64 % 0 lf 1019,4 hPa 0,0 l/m 0,00 h 0,00 h 5 W/m 8,0 km/h (2 Bft) 96,88 %
24.09.2016 21:00 17,6 C 16,7 C 13,2 C 69 % 0 lf 1019,4 hPa 0,0 l/m 0,00 h 0,00 h 5 W/m 9,0 km/h (2 Bft) 94,90 %
24.09.2016 22:00 16,7 C 16,4 C 13,7 C 70 % 0 lf 1019,3 hPa 0,0 l/m 0,00 h 0,00 h 0 W/m 9,8 km/h (2 Bft) 96,39 %
24.09.2016 23:00 15,9 C 15,4 C 12,7 C 71 % 0 lf 1019,1 hPa 0,0 l/m 0,00 h 0,00 h 5 W/m 9,9 km/h (2 Bft) 98,51 %
25.09.2016 00:00 15,0 C 14,2 C 11,8 C 73 % 0 lf 1018,7 hPa 0,0 l/m 0,00 h 0,00 h 5 W/m 8,3 km/h (2 Bft) 92,93 %
25.09.2016 01:00 13,7 C 12,8 C 10,3 C 77 % 0 lf 1018,4 hPa 0,0 l/m 0,00 h 0,00 h 5 W/m 6,8 km/h (2 Bft) 97,27 %
25.09.2016 02:00 12,8 C 12,8 C 10,8 C 81 % 0 lf 1018,2 hPa 0,0 l/m 0,00 h 0,00 h 5 W/m 12,4 km/h (3 Bft) 97,73 %
25.09.2016 03:00 12,9 C 12,8 C 11,0 C 83 % 0 lf 1017,8 hPa 0,0 l/m 0,00 h 0,00 h 5 W/m 14,6 km/h (3 Bft) 95,22 %
25.09.2016 04:00 12,5 C 12,3 C 10,4 C 85 % 0 lf 1017,5 hPa 0,0 l/m 0,00 h 0,00 h 5 W/m 13,2 km/h (3 Bft) 85,20 %
25.09.2016 05:00 12,1 C 12,1 C 10,0 C 87 % 1 lf 1017,3 hPa 0,0 l/m 0,00 h 0,00 h 5 W/m 15,1 km/h (3 Bft) 97,09 %
25.09.2016 06:00 11,9 C 11,9 C 9,9 C 88 % 1 lf 1016,9 hPa 0,0 l/m 0,00 h 0,00 h 5 W/m 14,4 km/h (3 Bft) 95,50 %
25.09.2016 07:00 11,6 C 11,8 C 9,9 C 89 % 1 lf 1016,7 hPa 0,0 l/m 0,33 h 0,00 h 16 W/m 15,6 km/h (3 Bft) 96,87 %
25.09.2016 08:00 12,2 C 14,8 C 11,1 C 88 % 0 lf 1016,6 hPa 0,0 l/m 1,00 h 0,00 h 121 W/m 17,5 km/h (3 Bft) 95,97 %
25.09.2016 09:00 15,0 C 19,7 C 14,5 C 81 % 0 lf 1016,3 hPa 0,0 l/m 1,00 h 0,00 h 284 W/m 19,3 km/h (3 Bft) 95,87 %
25.09.2016 10:00 17,8 C 22,9 C 21,0 C 74 % 0 lf 1015,8 hPa 0,0 l/m 1,00 h 0,00 h 421 W/m 20,8 km/h (4 Bft) 97,93 %
25.09.2016 11:00 20,5 C 26,0 C 25,0 C 68 % 0 lf 1015,6 hPa 0,0 l/m 1,00 h 0,00 h 523 W/m 24,1 km/h (4 Bft) 95,62 %
25.09.2016 12:00 23,0 C 28,7 C 24,7 C 62 % 0 lf 1015,4 hPa 0,0 l/m 0,97 h 0,00 h 585 W/m 18,5 km/h (3 Bft) 96,38 %
25.09.2016 13:00 25,2 C 30,9 C 23,9 C 57 % 0 lf 1015,0 hPa 0,0 l/m 1,00 h 0,00 h 624 W/m 20,0 km/h (4 Bft) 97,23 %
25.09.2016 14:00 26,7 C 32,7 C 24,7 C 51 % 0 lf 1014,5 hPa 0,0 l/m 1,00 h 0,00 h 777 W/m 18,4 km/h (3 Bft) 94,70 %
25.09.2016 15:00 27,6 C 34,0 C 25,2 C 45 % 0 lf 1014,5 hPa 0,0 l/m 0,97 h 0,00 h 491 W/m 19,3 km/h (3 Bft) 96,89 %
25.09.2016 16:00 27,5 C 32,0 C 24,8 C 45 % 0 lf 1014,8 hPa 0,0 l/m 0,90 h 0,00 h 360 W/m 20,5 km/h (4 Bft) 95,14 %
25.09.2016 17:00 26,2 C 28,0 C 23,5 C 51 % 0 lf 1015,3 hPa 0,0 l/m 0,60 h 0,00 h 181 W/m 19,3 km/h (3 Bft) 98,13 %
25.09.2016 18:00 23,8 C 23,2 C 21,0 C 61 % 0 lf 1016,2 hPa 0,0 l/m 0,00 h 0,00 h 31 W/m 22,2 km/h (4 Bft) 95,57 %
25.09.2016 19:00 20,9 C 19,9 C 18,3 C 71 % 1 lf 1017,8 hPa 0,0 l/m 0,00 h 0,13 h 7 W/m 27,1 km/h (4 Bft) 95,60 %
25.09.2016 20:00 17,9 C 17,3 C 15,8 C 68 % 0 lf 1019,0 hPa 0,0 l/m 0,00 h 0,00 h 5 W/m 20,2 km/h (4 Bft) 97,64 %
25.09.2016 21:00 17,0 C 16,5 C 14,9 C 72 % 0 lf 1019,7 hPa 0,0 l/m 0,00 h 0,00 h 0 W/m 8,6 km/h (2 Bft) 95,94 %
25.09.2016 22:00 16,4 C 15,9 C 14,3 C 76 % 0 lf 1020,3 hPa 0,0 l/m 0,00 h 0,00 h 5 W/m 9,4 km/h (2 Bft) 94,53 %
25.09.2016 23:00 16,2 C 16,1 C 14,8 C 79 % 0 lf 1020,7 hPa 0,0 l/m 0,00 h 0,00 h 0 W/m 11,1 km/h (2 Bft) 98,58 %
Min-Datum _ 22.09.16 22.09.16 22.09.16 25.09.16 19.09.16 25.09.16 - - - - 19.09.16 25.09.16
_ Min-Zeit 07:48 04:26 04:18 15:46 03:58 14:26 - - - - 00:20 04:06
Minimum _ 8,8 C 8,9 C 7,2 C 43 % 0 lf 1014,4 hPa - - - - 0,0 km/h (0 Bft) 4,17 %
Max-Datum _ 25.09.16 25.09.16 25.09.16 24.09.16 23.09.16 23.09.16 19.09.16 19.09.16 20.09.16 19.09.16 25.09.16 19.09.16
_ Max-Zeit 15:38 15:04 11:52 08:56 06:38 22:48 00:00 12:00 10:16 15:18 19:12 00:10
Maximum _ 27,8 C 36,1 C 27,2 C 98 % 15 lf 1025,4 hPa 0,0 l/m 0,03 h 0,03 h 1426 W/m 41,8 km/h
W-NW (6 Bft)
100,00 %
Durchschnitt _ 16,1 C 17,5 C 14,9 C 78 % 1 lf 1019,8 hPa #0,0 l/m #52:44 h #12 min. 200 W/m 8,0 km/h (2 Bft) 96,14 %
© 2016 W. Hausmann